Time,TemperatureF,DewpointF,PressureIn,WindDirection,WindDirectionDegrees,WindSpeedMPH,WindSpeedGustMPH,Humidity,HourlyPrecipIn,Conditions,Clouds,dailyrainin,SolarRadiationWatts/m^2,SoftwareType,DateUTC
2013-08-23 00:12:00,74.0,42.0,-100.00,NNW,344,4.0,7.0,31,-99.99,,,-99.99,0.000000,,2013-08-23 06:12:00,
2013-08-23 00:42:00,72.0,46.0,-100.00,NW,326,3.0,5.0,39,-99.99,,,-99.99,0.000000,,2013-08-23 06:42:00,
2013-08-23 01:42:00,73.0,50.0,-100.00,East,98,4.0,9.0,44,-99.99,,,-99.99,0.000000,,2013-08-23 07:42:00,
2013-08-23 02:42:00,72.0,52.0,-100.00,East,89,3.0,9.0,49,-99.99,,,-99.99,0.000000,,2013-08-23 08:42:00,
2013-08-23 03:43:00,71.0,53.0,-100.00,North,359,3.0,6.0,52,-99.99,,,-99.99,0.000000,,2013-08-23 09:43:00,
2013-08-23 04:13:00,71.0,53.0,-100.00,NNE,24,4.0,7.0,52,-99.99,,,-99.99,0.000000,,2013-08-23 10:13:00,
2013-08-23 04:42:00,70.0,53.0,-100.00,ESE,102,3.0,5.0,55,-99.99,,,-99.99,0.000000,,2013-08-23 10:42:00,
2013-08-23 05:42:00,66.0,54.0,-100.00,NNW,329,3.0,4.0,64,-99.99,,,-99.99,0.000000,,2013-08-23 11:42:00,
2013-08-23 05:53:00,66.0,54.0,-100.00,NNW,340,4.0,6.0,65,-99.99,,,-99.99,0.000000,,2013-08-23 11:53:00,
2013-08-23 06:11:00,66.0,54.0,-100.00,NNW,336,6.0,7.0,63,-99.99,,,-99.99,0.000000,,2013-08-23 12:11:00,
2013-08-23 06:42:00,68.0,54.0,-100.00,North,3,5.0,7.0,60,-99.99,,,-99.99,0.000000,,2013-08-23 12:42:00,
2013-08-23 07:12:00,68.0,54.0,-100.00,NNW,337,3.0,4.0,60,-99.99,,,-99.99,4.180000,,2013-08-23 13:12:00,
2013-08-23 08:12:00,69.0,55.0,-100.00,NNW,333,4.0,5.0,60,-99.99,,,-99.99,78.099998,,2013-08-23 14:12:00,
2013-08-23 08:42:00,72.0,53.0,-100.00,East,89,3.0,5.0,51,-99.99,,,-99.99,143.649994,,2013-08-23 14:42:00,
2013-08-23 08:52:00,72.0,54.0,-100.00,East,91,3.0,5.0,51,-99.99,,,-99.99,260.799988,,2013-08-23 14:52:00,
2013-08-23 09:01:00,72.0,54.0,-100.00,East,91,3.0,5.0,51,-99.99,,,-99.99,260.799988,,2013-08-23 15:01:00,
2013-08-23 09:44:00,77.0,52.0,-100.00,ESE,105,2.0,6.0,42,-99.99,,,-99.99,412.119995,,2013-08-23 15:44:00,
2013-08-23 10:13:00,75.0,52.0,-100.00,SE,135,4.0,9.0,44,-99.99,,,-99.99,581.580017,,2013-08-23 16:13:00,
2013-08-23 10:42:00,77.0,52.0,-100.00,SSE,164,5.0,9.0,42,-99.99,,,-99.99,677.109985,,2013-08-23 16:42:00,
2013-08-23 10:53:00,76.0,52.0,-100.00,SE,146,5.0,10.0,43,-99.99,,,-99.99,597.609985,,2013-08-23 16:53:00,
2013-08-23 11:04:00,76.0,52.0,-100.00,SE,146,5.0,10.0,43,-99.99,,,-99.99,597.609985,,2013-08-23 17:04:00,
2013-08-23 11:13:00,76.0,52.0,-100.00,SE,146,5.0,10.0,43,-99.99,,,-99.99,597.609985,,2013-08-23 17:13:00,
2013-08-23 11:24:00,77.0,53.0,-100.00,SE,146,5.0,10.0,43,-99.99,,,-99.99,715.460022,,2013-08-23 17:24:00,
2013-08-23 11:43:00,77.0,53.0,-100.00,SSE,151,5.0,11.0,42,-99.99,,,-99.99,799.840027,,2013-08-23 17:43:00,
2013-08-23 12:12:00,78.0,52.0,-100.00,SE,133,5.0,10.0,39,-99.99,,,-99.99,650.609985,,2013-08-23 18:12:00,
2013-08-23 12:52:00,80.0,49.0,-100.00,SSE,155,8.0,19.0,33,-99.99,,,-99.99,842.380005,,2013-08-23 18:52:00,
2013-08-23 13:12:00,81.0,49.0,-100.00,South,177,8.0,16.0,32,-99.99,,,-99.99,857.020020,,2013-08-23 19:12:00,
2013-08-23 13:22:00,81.0,50.0,-100.00,SSE,160,7.0,17.0,34,-99.99,,,-99.99,808.909973,,2013-08-23 19:22:00,
2013-08-23 13:42:00,81.0,49.0,-100.00,SSE,168,7.0,21.0,32,-99.99,,,-99.99,871.669983,,2013-08-23 19:42:00,
2013-08-23 13:52:00,82.0,47.0,-100.00,South,173,9.0,17.0,30,-99.99,,,-99.99,873.059998,,2013-08-23 19:52:00,
2013-08-23 14:12:00,82.0,48.0,-100.00,South,174,9.0,19.0,30,-99.99,,,-99.99,882.820007,,2013-08-23 20:12:00,
2013-08-23 14:42:00,83.0,47.0,-100.00,SSE,152,9.0,18.0,28,-99.99,,,-99.99,774.039978,,2013-08-23 20:42:00,
2013-08-23 15:44:00,83.0,47.0,-100.00,SSE,151,11.0,20.0,28,-99.99,,,-99.99,390.510010,,2013-08-23 21:44:00,
2013-08-23 16:13:00,84.0,46.0,-100.00,SSE,158,11.0,20.0,27,-99.99,,,-99.99,765.669983,,2013-08-23 22:13:00,
2013-08-23 16:43:00,84.0,45.0,-100.00,South,177,7.0,13.0,25,-99.99,,,-99.99,614.349976,,2013-08-23 22:43:00,
2013-08-23 16:53:00,84.0,46.0,-100.00,SSE,158,11.0,19.0,26,-99.99,,,-99.99,592.039978,,2013-08-23 22:53:00,
2013-08-23 17:03:00,84.0,46.0,-100.00,SSE,158,11.0,19.0,26,-99.99,,,-99.99,592.039978,,2013-08-23 23:03:00,
2013-08-23 17:43:00,84.0,46.0,-100.00,SSE,150,10.0,17.0,26,-99.99,,,-99.99,365.399994,,2013-08-23 23:43:00,
2013-08-23 18:22:00,80.0,49.0,-100.00,SSE,154,14.0,23.0,34,-99.99,,,-99.99,66.940002,,2013-08-24 00:22:00,
2013-08-23 19:42:00,76.0,54.0,-100.00,SE,124,10.0,18.0,47,-99.99,,,-99.99,13.950000,,2013-08-24 01:42:00,
2013-08-23 20:42:00,72.0,58.0,-100.00,NNW,328,2.0,5.0,62,-99.99,,,-99.99,0.000000,,2013-08-24 02:42:00,
2013-08-23 20:52:00,72.0,59.0,-100.00,NNW,340,4.0,6.0,65,-99.99,,,-99.99,0.000000,,2013-08-24 02:52:00,
2013-08-23 21:02:00,72.0,59.0,-100.00,NNW,340,4.0,6.0,65,-99.99,,,-99.99,0.000000,,2013-08-24 03:02:00,
2013-08-23 21:44:00,72.0,57.0,-100.00,North,5,2.0,3.0,58,-99.99,,,-99.99,0.000000,,2013-08-24 03:44:00,
2013-08-23 22:44:00,72.0,55.0,-100.00,East,101,5.0,7.0,55,-99.99,,,-99.99,0.000000,,2013-08-24 04:44:00,
2013-08-23 23:43:00,71.0,55.0,-100.00,ESE,112,8.0,12.0,58,-99.99,,,-99.99,0.000000,,2013-08-24 05:43:00,